createdAt,value
2018-12-12T00:00:41.876Z,17.77
2018-12-12T00:01:41.828Z,17.78
2018-12-12T00:02:41.778Z,17.72
2018-12-12T00:03:41.729Z,17.71
2018-12-12T00:04:41.680Z,17.68
2018-12-12T00:05:41.631Z,17.71
2018-12-12T00:06:41.582Z,17.74
2018-12-12T00:07:41.544Z,17.66
2018-12-12T00:08:41.483Z,17.66
2018-12-12T00:09:41.485Z,17.66
2018-12-12T00:10:41.387Z,17.64
2018-12-12T00:11:41.337Z,17.66
2018-12-12T00:12:41.287Z,17.70
2018-12-12T00:13:41.237Z,17.62
2018-12-12T00:14:41.189Z,17.63
2018-12-12T00:15:41.141Z,17.70
2018-12-12T00:16:41.091Z,17.71
2018-12-12T00:17:41.076Z,17.70
2018-12-12T00:18:41.043Z,17.68
2018-12-12T00:19:40.944Z,17.72
2018-12-12T00:20:40.897Z,17.68
2018-12-12T00:21:40.844Z,17.74
2018-12-12T00:22:40.796Z,17.66
2018-12-12T00:23:40.748Z,17.72
2018-12-12T00:24:40.699Z,17.66
2018-12-12T00:25:40.647Z,17.68
2018-12-12T00:26:40.599Z,17.70
2018-12-12T00:27:40.552Z,17.70
2018-12-12T00:28:40.508Z,17.66
2018-12-12T00:29:40.452Z,17.72
2018-12-12T00:30:40.403Z,17.70
2018-12-12T00:31:40.354Z,17.68
2018-12-12T00:32:40.305Z,17.63
2018-12-12T00:33:40.259Z,17.66
2018-12-12T00:34:40.205Z,17.74
2018-12-12T00:35:41.102Z,17.72
2018-12-12T00:36:40.161Z,17.66
2018-12-12T00:37:40.059Z,17.64
2018-12-12T00:38:40.017Z,17.63
2018-12-12T00:39:39.961Z,17.72
2018-12-12T00:40:39.911Z,17.64
2018-12-12T00:41:39.862Z,17.72
2018-12-12T00:42:39.816Z,17.66
2018-12-12T00:43:39.764Z,17.66
2018-12-12T00:44:39.715Z,17.68
2018-12-12T00:45:39.664Z,17.66
2018-12-12T00:46:39.616Z,17.70
2018-12-12T00:47:39.567Z,17.64
2018-12-12T00:48:39.518Z,17.71
2018-12-12T00:49:39.468Z,17.68
2018-12-12T00:50:39.420Z,17.72
2018-12-12T00:51:39.371Z,17.71
2018-12-12T00:52:39.321Z,17.66
2018-12-12T00:53:39.272Z,17.64
2018-12-12T00:54:39.223Z,17.70
2018-12-12T00:55:39.174Z,17.68
2018-12-12T00:56:39.125Z,17.68
2018-12-12T00:57:39.075Z,17.66
2018-12-12T00:58:39.027Z,17.70
2018-12-12T00:59:38.979Z,17.71
2018-12-12T01:00:38.928Z,17.62
2018-12-12T01:01:38.879Z,17.59
2018-12-12T01:02:38.830Z,17.66
2018-12-12T01:03:38.781Z,17.66
2018-12-12T01:04:38.730Z,17.70
2018-12-12T01:05:38.682Z,17.71
2018-12-12T01:06:38.635Z,17.66
2018-12-12T01:07:38.584Z,17.68
2018-12-12T01:08:38.538Z,17.63
2018-12-12T01:09:38.486Z,17.71
2018-12-12T01:10:38.437Z,17.66
2018-12-12T01:11:38.388Z,17.63
2018-12-12T01:12:38.338Z,17.66
2018-12-12T01:13:38.289Z,17.66
2018-12-12T01:14:38.241Z,17.66
2018-12-12T01:15:38.190Z,17.64
2018-12-12T01:16:38.142Z,17.64
2018-12-12T01:17:38.097Z,17.66
2018-12-12T01:18:38.049Z,17.68
2018-12-12T01:19:37.993Z,17.66
2018-12-12T01:20:37.944Z,17.63
2018-12-12T01:21:37.895Z,17.64
2018-12-12T01:22:37.847Z,17.64
2018-12-12T01:23:37.800Z,17.71
2018-12-12T01:24:37.748Z,17.64
2018-12-12T01:25:37.749Z,17.66
2018-12-12T01:26:37.650Z,17.68
2018-12-12T01:27:37.601Z,17.64
2018-12-12T01:28:37.551Z,17.64
2018-12-12T01:29:37.506Z,17.70
2018-12-12T01:30:37.454Z,17.62
2018-12-12T01:31:37.408Z,17.66
2018-12-12T01:32:37.357Z,17.66
2018-12-12T01:33:37.306Z,17.59
2018-12-12T01:34:37.256Z,17.68
2018-12-12T01:35:37.208Z,17.62
2018-12-12T01:36:37.158Z,17.63
2018-12-12T01:37:37.109Z,17.71
2018-12-12T01:38:37.060Z,17.68
2018-12-12T01:39:37.011Z,17.63
2018-12-12T01:40:36.961Z,17.66
2018-12-12T01:41:36.911Z,17.62
2018-12-12T01:42:36.869Z,17.68
2018-12-12T01:43:36.815Z,17.68
2018-12-12T01:44:36.766Z,17.63
2018-12-12T01:45:36.715Z,17.64
2018-12-12T01:46:36.666Z,17.64
2018-12-12T01:47:36.618Z,17.64
2018-12-12T01:48:36.567Z,17.64
2018-12-12T01:49:36.519Z,17.62
2018-12-12T01:50:36.471Z,17.64
2018-12-12T01:51:36.421Z,17.68
2018-12-12T01:52:36.373Z,17.62
2018-12-12T01:53:36.323Z,17.63
2018-12-12T01:54:36.274Z,17.63
2018-12-12T01:55:36.223Z,17.62
2018-12-12T01:56:36.175Z,17.70
2018-12-12T01:57:36.126Z,17.66
2018-12-12T01:58:36.077Z,17.66
2018-12-12T01:59:36.028Z,17.63
2018-12-12T02:00:35.977Z,17.70
2018-12-12T02:01:35.929Z,17.66
2018-12-12T02:02:35.881Z,17.68
2018-12-12T02:03:35.833Z,17.66
2018-12-12T02:04:35.781Z,17.70
2018-12-12T02:05:35.733Z,17.63
2018-12-12T02:06:35.684Z,17.71
2018-12-12T02:07:35.635Z,17.68
2018-12-12T02:08:35.585Z,17.66
2018-12-12T02:09:35.536Z,17.66
2018-12-12T02:10:35.490Z,17.63
2018-12-12T02:11:35.438Z,17.70
2018-12-12T02:12:35.387Z,17.68
2018-12-12T02:13:35.339Z,17.66
2018-12-12T02:14:35.293Z,17.64
2018-12-12T02:15:35.241Z,17.71
2018-12-12T02:16:35.192Z,17.70
2018-12-12T02:17:35.143Z,17.63
2018-12-12T02:18:35.094Z,17.64
2018-12-12T02:19:35.045Z,17.71
2018-12-12T02:20:34.995Z,17.71
2018-12-12T02:21:34.946Z,17.71
2018-12-12T02:22:34.898Z,17.70
2018-12-12T02:23:34.849Z,17.66
2018-12-12T02:24:34.798Z,17.63
2018-12-12T02:25:34.750Z,17.70
2018-12-12T02:26:34.704Z,17.68
2018-12-12T02:27:34.652Z,17.70
2018-12-12T02:28:34.603Z,17.63
2018-12-12T02:29:34.555Z,17.66
2018-12-12T02:30:34.505Z,17.68
2018-12-12T02:31:34.456Z,17.63
2018-12-12T02:32:34.406Z,17.68
2018-12-12T02:33:34.356Z,17.63
2018-12-12T02:34:34.307Z,17.70
2018-12-12T02:35:34.259Z,17.64
2018-12-12T02:36:34.209Z,17.68
2018-12-12T02:37:34.160Z,17.68
2018-12-12T02:38:34.112Z,17.66
2018-12-12T02:39:34.063Z,17.68
2018-12-12T02:40:34.013Z,17.72
2018-12-12T02:41:33.963Z,17.71
2018-12-12T02:42:33.914Z,17.63
2018-12-12T02:43:33.866Z,17.64
2018-12-12T02:44:33.817Z,17.63
2018-12-12T02:45:33.767Z,17.72
2018-12-12T02:46:33.719Z,17.64
2018-12-12T02:47:33.668Z,17.71
2018-12-12T02:48:33.623Z,17.68
2018-12-12T02:49:33.570Z,17.64
2018-12-12T02:50:33.522Z,17.63
2018-12-12T02:51:33.473Z,17.66
2018-12-12T02:52:33.423Z,17.66
2018-12-12T02:53:33.374Z,17.71
2018-12-12T02:54:33.323Z,17.70
2018-12-12T02:55:33.275Z,17.64
2018-12-12T02:56:33.234Z,17.63
2018-12-12T02:57:33.178Z,17.70
2018-12-12T02:58:33.128Z,17.68
2018-12-12T02:59:33.081Z,17.64
2018-12-12T03:00:33.035Z,17.58
2018-12-12T03:01:32.987Z,17.66
2018-12-12T03:02:33.249Z,17.66
2018-12-12T03:03:33.199Z,17.71
2018-12-12T03:04:33.149Z,17.64
2018-12-12T03:05:32.785Z,17.64
2018-12-12T03:06:32.734Z,17.64
2018-12-12T03:07:32.686Z,17.63
2018-12-12T03:08:32.641Z,17.64
2018-12-12T03:09:32.590Z,17.59
2018-12-12T03:10:32.549Z,17.68
2018-12-12T03:11:32.491Z,17.68
2018-12-12T03:12:32.439Z,17.64
2018-12-12T03:13:32.390Z,17.68
2018-12-12T03:14:32.341Z,17.59
2018-12-12T03:15:32.294Z,17.62
2018-12-12T03:16:32.241Z,17.68
2018-12-12T03:17:32.193Z,17.63
2018-12-12T03:18:32.143Z,17.63
2018-12-12T03:19:32.096Z,17.70
2018-12-12T03:20:32.046Z,17.66
2018-12-12T03:21:31.997Z,17.66
2018-12-12T03:22:31.948Z,17.62
2018-12-12T03:23:31.898Z,17.64
2018-12-12T03:24:31.849Z,17.68
2018-12-12T03:25:31.802Z,17.63
2018-12-12T03:26:31.761Z,17.66
2018-12-12T03:27:31.705Z,17.59
2018-12-12T03:28:31.659Z,17.63
2018-12-12T03:29:31.605Z,17.66
2018-12-12T03:30:31.556Z,17.59
2018-12-12T03:31:31.508Z,17.66
2018-12-12T03:32:31.457Z,17.63
2018-12-12T03:33:31.407Z,17.66
2018-12-12T03:34:31.359Z,17.70
2018-12-12T03:35:31.309Z,17.66
2018-12-12T03:36:31.268Z,17.68
2018-12-12T03:37:31.212Z,17.59
2018-12-12T03:38:31.165Z,17.70
2018-12-12T03:39:31.113Z,17.59
2018-12-12T03:40:31.068Z,17.62
2018-12-12T03:41:31.014Z,17.71
2018-12-12T03:42:30.966Z,17.64
2018-12-12T03:43:30.916Z,17.66
2018-12-12T03:44:30.868Z,17.66
2018-12-12T03:45:30.816Z,17.66
2018-12-12T03:46:30.767Z,17.66
2018-12-12T03:47:30.720Z,17.68
2018-12-12T03:48:30.671Z,17.68
2018-12-12T03:49:30.621Z,17.66
2018-12-12T03:50:30.574Z,17.64
2018-12-12T03:51:30.523Z,17.63
2018-12-12T03:52:30.473Z,17.71
2018-12-12T03:53:30.424Z,17.64
2018-12-12T03:54:30.375Z,17.63
2018-12-12T03:55:30.326Z,17.63
2018-12-12T03:56:30.293Z,17.58
2018-12-12T03:57:30.228Z,17.64
2018-12-12T03:58:30.179Z,17.56
2018-12-12T03:59:30.131Z,17.68
2018-12-12T04:00:30.080Z,17.62
2018-12-12T04:01:30.035Z,17.59
2018-12-12T04:02:29.982Z,17.56
2018-12-12T04:03:29.933Z,17.56
2018-12-12T04:04:29.886Z,17.62
2018-12-12T04:05:29.833Z,17.66
2018-12-12T04:06:29.786Z,17.68
2018-12-12T04:07:29.734Z,17.56
2018-12-12T04:08:29.686Z,17.56
2018-12-12T04:09:29.638Z,17.58
2018-12-12T04:10:29.587Z,17.63
2018-12-12T04:11:29.542Z,17.58
2018-12-12T04:12:29.510Z,17.68
2018-12-12T04:13:29.441Z,17.52
2018-12-12T04:14:29.394Z,17.63
2018-12-12T04:15:29.348Z,17.55
2018-12-12T04:16:29.293Z,17.62
2018-12-12T04:17:29.244Z,17.71
2018-12-12T04:18:29.194Z,17.63
2018-12-12T04:19:29.146Z,17.68
2018-12-12T04:20:29.095Z,17.64
2018-12-12T04:21:29.047Z,17.64
2018-12-12T04:22:28.998Z,17.64
2018-12-12T04:23:28.951Z,17.63
2018-12-12T04:24:28.902Z,17.64
2018-12-12T04:25:28.850Z,17.64
2018-12-12T04:26:28.801Z,17.66
2018-12-12T04:27:28.752Z,17.70
2018-12-12T04:28:28.702Z,17.66
2018-12-12T04:29:28.652Z,17.63
2018-12-12T04:30:28.604Z,17.68
2018-12-12T04:31:28.554Z,17.64
2018-12-12T04:32:28.509Z,17.64
2018-12-12T04:33:28.506Z,17.64
2018-12-12T04:34:28.409Z,17.68
2018-12-12T04:35:28.358Z,17.68
2018-12-12T04:36:28.369Z,17.64
2018-12-12T04:37:28.259Z,17.64
2018-12-12T04:38:28.211Z,17.64
2018-12-12T04:39:28.162Z,17.68
2018-12-12T04:40:28.112Z,17.63
2018-12-12T04:41:28.062Z,17.66
2018-12-12T04:42:28.018Z,17.68
2018-12-12T04:43:28.014Z,17.66
2018-12-12T04:44:27.915Z,17.62
2018-12-12T04:45:27.864Z,17.58
2018-12-12T04:46:27.819Z,17.59
2018-12-12T04:47:27.768Z,17.55
2018-12-12T04:48:27.718Z,17.66
2018-12-12T04:49:27.669Z,17.55
2018-12-12T04:50:27.620Z,17.55
2018-12-12T04:51:27.576Z,17.56
2018-12-12T04:52:27.521Z,17.54
2018-12-12T04:53:27.471Z,17.54
2018-12-12T04:54:27.423Z,17.55
2018-12-12T04:55:27.374Z,17.54
2018-12-12T04:56:27.323Z,17.59
2018-12-12T04:57:27.276Z,17.55
2018-12-12T04:58:27.229Z,17.58
2018-12-12T04:59:27.178Z,17.56
2018-12-12T05:00:27.127Z,17.56
2018-12-12T05:01:27.080Z,17.55
2018-12-12T05:02:27.029Z,17.56
2018-12-12T05:03:26.984Z,17.62
2018-12-12T05:04:26.931Z,17.59
2018-12-12T05:05:26.886Z,17.52
2018-12-12T05:06:26.888Z,17.55
2018-12-12T05:07:26.783Z,17.55
2018-12-12T05:08:26.734Z,17.52
2018-12-12T05:09:26.686Z,17.51
2018-12-12T05:10:26.637Z,17.56
2018-12-12T05:11:26.591Z,17.55
2018-12-12T05:12:26.537Z,17.52
2018-12-12T05:13:26.488Z,17.52
2018-12-12T05:14:26.438Z,17.54
2018-12-12T05:15:26.391Z,17.58
2018-12-12T05:16:26.347Z,17.55
2018-12-12T05:17:26.292Z,17.58
2018-12-12T05:18:26.242Z,17.54
2018-12-12T05:19:26.468Z,17.62
2018-12-12T05:20:26.147Z,17.51
2018-12-12T05:21:26.097Z,17.51
2018-12-12T05:22:26.046Z,17.58
2018-12-12T05:23:25.997Z,17.55
2018-12-12T05:24:25.946Z,17.52
2018-12-12T05:25:25.898Z,17.55
2018-12-12T05:26:25.848Z,17.58
2018-12-12T05:27:25.802Z,17.55
2018-12-12T05:28:25.749Z,17.55
2018-12-12T05:29:25.699Z,17.51
2018-12-12T05:30:25.651Z,17.48
2018-12-12T05:31:25.602Z,17.54
2018-12-12T05:32:25.552Z,17.48
2018-12-12T05:33:25.503Z,17.56
2018-12-12T05:34:25.454Z,17.49
2018-12-12T05:35:25.406Z,17.46
2018-12-12T05:36:25.405Z,17.46
2018-12-12T05:37:25.305Z,17.44
2018-12-12T05:38:25.258Z,17.46
2018-12-12T05:39:25.208Z,17.46
2018-12-12T05:40:25.159Z,17.46
2018-12-12T05:41:25.110Z,17.54
2018-12-12T05:42:25.059Z,17.52
2018-12-12T05:43:25.012Z,17.48
2018-12-12T05:44:24.962Z,17.51
2018-12-12T05:45:24.913Z,17.49
2018-12-12T05:46:24.864Z,17.49
2018-12-12T05:47:24.829Z,17.49
2018-12-12T05:48:24.765Z,17.52
2018-12-12T05:49:24.724Z,17.54
2018-12-12T05:50:24.667Z,17.62
2018-12-12T05:51:24.618Z,17.52
2018-12-12T05:52:24.568Z,17.46
2018-12-12T05:53:24.519Z,17.49
2018-12-12T05:54:24.472Z,17.48
2018-12-12T05:55:24.421Z,17.48
2018-12-12T05:56:24.371Z,17.44
2018-12-12T05:57:24.322Z,17.51
2018-12-12T05:58:24.276Z,17.51
2018-12-12T05:59:24.225Z,17.59
2018-12-12T06:00:24.174Z,17.55
2018-12-12T06:01:24.126Z,17.46
2018-12-12T06:02:24.076Z,17.49
2018-12-12T06:03:24.027Z,17.49
2018-12-12T06:04:23.977Z,17.51
2018-12-12T06:05:23.928Z,17.49
2018-12-12T06:06:23.882Z,17.54
2018-12-12T06:07:23.830Z,17.48
2018-12-12T06:08:23.780Z,17.49
2018-12-12T06:09:23.731Z,17.48
2018-12-12T06:10:23.682Z,17.52
2018-12-12T06:11:23.633Z,17.49
2018-12-12T06:12:23.583Z,17.48
2018-12-12T06:13:23.534Z,17.46
2018-12-12T06:14:23.484Z,17.55
2018-12-12T06:15:23.440Z,17.54
2018-12-12T06:16:23.386Z,17.51
2018-12-12T06:17:23.340Z,17.52
2018-12-12T06:18:23.289Z,17.48
2018-12-12T06:19:23.238Z,17.48
2018-12-12T06:20:23.190Z,17.49
2018-12-12T06:21:23.141Z,17.51
2018-12-12T06:22:23.092Z,17.49
2018-12-12T06:23:23.043Z,17.48
2018-12-12T06:24:22.994Z,17.51
2018-12-12T06:25:22.944Z,17.49
2018-12-12T06:26:22.895Z,17.46
2018-12-12T06:27:22.845Z,17.49
2018-12-12T06:28:22.801Z,17.49
2018-12-12T06:29:22.750Z,17.52
2018-12-12T06:30:22.697Z,17.44
2018-12-12T06:31:22.648Z,17.48
2018-12-12T06:32:22.598Z,17.52
2018-12-12T06:33:22.550Z,17.52
2018-12-12T06:34:22.501Z,17.55
2018-12-12T06:35:22.451Z,17.54
2018-12-12T06:36:22.402Z,17.49
2018-12-12T06:37:22.354Z,17.52
2018-12-12T06:38:22.304Z,17.51
2018-12-12T06:39:22.258Z,17.48
2018-12-12T06:40:22.205Z,17.48
2018-12-12T06:41:22.156Z,17.49
2018-12-12T06:42:22.109Z,17.48
2018-12-12T06:43:22.057Z,17.48
2018-12-12T06:44:22.010Z,17.51
2018-12-12T06:45:21.961Z,17.54
2018-12-12T06:46:21.910Z,17.55
2018-12-12T06:47:21.861Z,17.43
2018-12-12T06:48:21.812Z,17.49
2018-12-12T06:49:21.760Z,17.55
2018-12-12T06:50:21.711Z,17.49
2018-12-12T06:51:21.666Z,17.48
2018-12-12T06:52:21.618Z,17.44
2018-12-12T06:53:21.566Z,17.55
2018-12-12T06:54:21.517Z,17.46
2018-12-12T06:55:21.468Z,17.54
2018-12-12T06:56:21.416Z,17.52
2018-12-12T06:57:21.368Z,17.48
2018-12-12T06:58:21.319Z,17.52
2018-12-12T06:59:21.268Z,17.54
2018-12-12T07:00:21.218Z,17.52
2018-12-12T07:01:21.487Z,17.49
2018-12-12T07:02:21.122Z,17.55
2018-12-12T07:03:21.073Z,17.46
2018-12-12T07:04:21.021Z,17.46
2018-12-12T07:05:20.973Z,17.51
2018-12-12T07:06:20.924Z,17.48
2018-12-12T07:07:20.876Z,17.46
2018-12-12T07:08:20.824Z,17.54
2018-12-12T07:09:20.777Z,17.51
2018-12-12T07:10:20.787Z,17.46
2018-12-12T07:11:20.677Z,17.56
2018-12-12T07:12:20.629Z,17.46
2018-12-12T07:13:20.587Z,17.48
2018-12-12T07:14:20.535Z,17.46
2018-12-12T07:15:20.482Z,17.43
2018-12-12T07:16:20.432Z,17.51
2018-12-12T07:17:20.382Z,17.52
2018-12-12T07:18:20.332Z,17.49
2018-12-12T07:19:20.284Z,17.52
2018-12-12T07:20:20.236Z,17.55
2018-12-12T07:21:20.184Z,17.52
2018-12-12T07:22:20.141Z,17.49
2018-12-12T07:23:20.087Z,17.46
2018-12-12T07:24:20.037Z,17.54
2018-12-12T07:25:19.988Z,17.52
2018-12-12T07:26:19.939Z,17.55
2018-12-12T07:27:19.890Z,17.56
2018-12-12T07:28:19.890Z,17.68
2018-12-12T07:29:19.796Z,17.70
2018-12-12T07:30:19.791Z,17.72
2018-12-12T07:31:19.693Z,17.64
2018-12-12T07:32:25.866Z,17.64
2018-12-12T07:33:19.593Z,17.64
2018-12-12T07:34:20.301Z,17.63
2018-12-12T07:35:19.497Z,17.64
2018-12-12T07:36:19.446Z,17.58
2018-12-12T07:37:19.400Z,17.66
2018-12-12T07:38:19.350Z,17.56
2018-12-12T07:39:19.299Z,17.66
2018-12-12T07:40:19.248Z,17.66
2018-12-12T07:41:19.201Z,17.70
2018-12-12T07:42:19.150Z,17.64
2018-12-12T07:43:19.109Z,17.56
2018-12-12T07:44:19.052Z,17.68
2018-12-12T07:45:19.003Z,17.70
2018-12-12T07:46:18.956Z,17.70
2018-12-12T07:47:18.911Z,17.75
2018-12-12T07:48:18.855Z,17.75
2018-12-12T07:49:18.808Z,17.78
2018-12-12T07:50:18.758Z,17.84
2018-12-12T07:51:18.709Z,17.77
2018-12-12T07:52:18.659Z,17.81
2018-12-12T07:53:18.610Z,17.82
2018-12-12T07:54:18.561Z,17.92
2018-12-12T07:55:18.511Z,17.82
2018-12-12T07:56:18.463Z,17.84
2018-12-12T07:57:18.412Z,17.86
2018-12-12T07:58:18.367Z,17.89
2018-12-12T07:59:18.314Z,18.00
2018-12-12T08:00:18.265Z,17.99
2018-12-12T08:01:18.221Z,18.03
2018-12-12T08:02:18.167Z,17.96
2018-12-12T08:03:18.119Z,18.03
2018-12-12T08:04:18.068Z,18.05
2018-12-12T08:05:18.022Z,18.10
2018-12-12T08:06:17.971Z,18.10
2018-12-12T08:07:17.922Z,18.12
2018-12-12T08:08:17.872Z,18.08
2018-12-12T08:09:17.824Z,18.15
2018-12-12T08:10:17.774Z,18.07
2018-12-12T08:11:17.737Z,18.17
2018-12-12T08:12:17.675Z,18.18
2018-12-12T08:13:17.626Z,18.17
2018-12-12T08:14:17.577Z,18.10
2018-12-12T08:15:17.529Z,18.12
2018-12-12T08:16:17.479Z,18.03
2018-12-12T08:17:17.430Z,18.10
2018-12-12T08:18:17.439Z,18.12
2018-12-12T08:19:17.331Z,18.10
2018-12-12T08:20:17.283Z,18.18
2018-12-12T08:21:17.233Z,18.23
2018-12-12T08:22:17.188Z,18.27
2018-12-12T08:23:17.138Z,18.21
2018-12-12T08:24:17.092Z,18.30
2018-12-12T08:25:17.040Z,18.37
2018-12-12T08:26:17.031Z,18.35
2018-12-12T08:27:16.942Z,18.42
2018-12-12T08:28:16.891Z,18.51
2018-12-12T08:29:16.842Z,18.50
2018-12-12T08:30:16.793Z,18.51
2018-12-12T08:31:16.752Z,18.48
2018-12-12T08:32:16.694Z,18.58
2018-12-12T08:33:16.646Z,18.57
2018-12-12T08:34:16.598Z,18.51
2018-12-12T08:35:16.549Z,18.65
2018-12-12T08:36:16.499Z,18.62
2018-12-12T08:37:16.451Z,18.58
2018-12-12T08:38:16.403Z,18.62
2018-12-12T08:39:16.359Z,18.66
2018-12-12T08:40:16.307Z,18.62
2018-12-12T08:41:16.258Z,18.63
2018-12-12T08:42:16.211Z,18.57
2018-12-12T08:43:16.161Z,18.62
2018-12-12T08:44:16.111Z,18.63
2018-12-12T08:45:16.062Z,18.58
2018-12-12T08:46:16.014Z,18.62
2018-12-12T08:47:15.967Z,18.55
2018-12-12T08:48:15.917Z,18.65
2018-12-12T08:49:15.876Z,18.52
2018-12-12T08:50:15.821Z,18.52
2018-12-12T08:51:15.773Z,18.55
2018-12-12T08:52:15.723Z,18.54
2018-12-12T08:53:15.675Z,18.48
2018-12-12T08:54:15.626Z,18.58
2018-12-12T08:55:17.778Z,18.50
2018-12-12T08:56:15.535Z,18.55
2018-12-12T08:57:15.480Z,18.52
2018-12-12T08:58:15.432Z,18.58
2018-12-12T08:59:15.385Z,18.50
2018-12-12T09:00:15.335Z,18.48
2018-12-12T09:01:15.353Z,18.51
2018-12-12T09:02:15.288Z,18.57
2018-12-12T09:03:17.762Z,18.48
2018-12-12T09:04:15.141Z,18.47
2018-12-12T09:05:15.094Z,18.47
2018-12-12T09:06:15.047Z,18.47
2018-12-12T09:07:14.997Z,18.51
2018-12-12T09:08:14.947Z,18.48
2018-12-12T09:09:14.899Z,18.54
2018-12-12T09:10:14.850Z,18.48
2018-12-12T09:11:14.810Z,18.48
2018-12-12T09:12:14.756Z,18.50
2018-12-12T09:13:15.451Z,18.52
2018-12-12T09:14:14.658Z,18.48
2018-12-12T09:15:14.609Z,18.47
2018-12-12T09:16:14.563Z,18.57
2018-12-12T09:17:14.511Z,18.52
2018-12-12T09:18:14.463Z,18.54
2018-12-12T09:19:14.416Z,18.52
2018-12-12T09:20:14.367Z,18.55
2018-12-12T09:21:14.317Z,18.57
2018-12-12T09:22:14.273Z,18.55
2018-12-12T09:23:14.222Z,18.48
2018-12-12T09:24:14.174Z,18.54
2018-12-12T09:25:14.223Z,18.52
2018-12-12T09:26:14.079Z,18.51
2018-12-12T09:27:14.028Z,18.52
2018-12-12T09:28:13.980Z,18.54
2018-12-12T09:29:13.929Z,18.52
2018-12-12T09:30:13.882Z,18.57
2018-12-12T09:31:13.836Z,18.47
2018-12-12T09:32:13.785Z,18.52
2018-12-12T09:33:13.739Z,18.57
2018-12-12T09:34:13.688Z,18.50
2018-12-12T09:35:13.639Z,18.60
2018-12-12T09:36:13.593Z,18.60
2018-12-12T09:37:13.541Z,18.60
2018-12-12T09:38:13.493Z,18.58
2018-12-12T09:39:13.446Z,18.57
2018-12-12T09:40:13.397Z,18.63
2018-12-12T09:41:13.348Z,18.65
2018-12-12T09:42:13.300Z,18.69
2018-12-12T09:43:13.253Z,18.76
2018-12-12T09:44:13.265Z,18.70
2018-12-12T09:45:13.154Z,18.72
2018-12-12T09:46:13.107Z,18.73
2018-12-12T09:47:13.058Z,18.70
2018-12-12T09:48:19.139Z,18.73
2018-12-12T09:49:12.965Z,18.73
2018-12-12T09:50:12.913Z,18.76
2018-12-12T09:51:12.865Z,18.73
2018-12-12T09:52:12.817Z,18.70
2018-12-12T09:53:12.767Z,18.80
2018-12-12T09:54:12.720Z,18.80
2018-12-12T09:55:12.671Z,18.73
2018-12-12T09:56:12.623Z,18.72
2018-12-12T09:57:12.573Z,18.73
2018-12-12T09:58:12.525Z,18.75
2018-12-12T09:59:12.478Z,18.63
2018-12-12T10:00:12.428Z,18.66
2018-12-12T10:01:12.381Z,18.67
2018-12-12T10:02:12.331Z,18.60
2018-12-12T10:03:12.284Z,18.67
2018-12-12T10:04:12.234Z,18.62
2018-12-12T10:05:12.186Z,18.66
2018-12-12T10:06:12.138Z,18.60
2018-12-12T10:07:12.092Z,18.62
2018-12-12T10:08:12.041Z,18.70
2018-12-12T10:09:11.998Z,18.63
2018-12-12T10:10:11.945Z,18.63
2018-12-12T10:11:11.895Z,18.65
2018-12-12T10:12:11.847Z,18.69
2018-12-12T10:13:11.798Z,18.73
2018-12-12T10:14:11.751Z,18.73
2018-12-12T10:15:11.710Z,18.67
2018-12-12T10:16:11.654Z,18.65
2018-12-12T10:17:11.614Z,18.73
2018-12-12T10:18:11.557Z,18.67
2018-12-12T10:19:11.508Z,18.65
2018-12-12T10:20:11.462Z,18.62
2018-12-12T10:21:11.412Z,18.62
2018-12-12T10:22:11.364Z,18.63
2018-12-12T10:23:11.314Z,18.70
2018-12-12T10:24:11.266Z,18.69
2018-12-12T10:25:11.218Z,18.66
2018-12-12T10:26:11.175Z,18.69
2018-12-12T10:27:11.121Z,18.69
2018-12-12T10:28:11.083Z,18.73
2018-12-12T10:29:11.023Z,18.73
2018-12-12T10:30:10.978Z,18.69
2018-12-12T10:31:10.927Z,18.78
2018-12-12T10:32:10.878Z,18.76
2018-12-12T10:33:10.832Z,18.76
2018-12-12T10:34:10.782Z,18.72
2018-12-12T10:35:10.733Z,18.75
2018-12-12T10:36:10.685Z,18.75
2018-12-12T10:37:10.635Z,18.81
2018-12-12T10:38:10.588Z,18.84
2018-12-12T10:39:10.542Z,18.84
2018-12-12T10:40:10.491Z,18.91
2018-12-12T10:41:10.443Z,18.84
2018-12-12T10:42:10.393Z,18.88
2018-12-12T10:43:10.408Z,18.85
2018-12-12T10:44:10.297Z,18.88
2018-12-12T10:45:10.250Z,18.92
2018-12-12T10:46:10.201Z,18.91
2018-12-12T10:47:10.152Z,18.87
2018-12-12T10:48:10.103Z,18.87
2018-12-12T10:49:10.056Z,18.94
2018-12-12T10:50:10.010Z,18.84
2018-12-12T10:51:09.959Z,18.91
2018-12-12T10:52:09.911Z,18.88
2018-12-12T10:53:09.863Z,18.85
2018-12-12T10:54:09.816Z,18.90
2018-12-12T10:55:09.766Z,18.88
2018-12-12T10:56:09.717Z,18.85
2018-12-12T10:57:09.669Z,18.91
2018-12-12T10:58:09.620Z,18.90
2018-12-12T10:59:09.572Z,18.85
2018-12-12T11:00:12.645Z,18.80
2018-12-12T11:01:09.476Z,18.78
2018-12-12T11:02:09.428Z,18.88
2018-12-12T11:03:09.378Z,18.81
2018-12-12T11:04:09.330Z,18.85
2018-12-12T11:05:09.282Z,18.72
2018-12-12T11:06:09.233Z,18.78
2018-12-12T11:07:09.185Z,18.76
2018-12-12T11:08:09.188Z,18.82
2018-12-12T11:09:09.092Z,18.78
2018-12-12T11:10:09.040Z,18.80
2018-12-12T11:11:08.995Z,18.75
2018-12-12T11:12:08.948Z,18.78
2018-12-12T11:13:08.945Z,18.78
2018-12-12T11:14:08.848Z,18.75
2018-12-12T11:15:08.799Z,18.80
2018-12-12T11:16:08.748Z,18.81
2018-12-12T11:17:08.701Z,18.84
2018-12-12T11:18:08.653Z,18.87
2018-12-12T11:19:08.604Z,18.76
2018-12-12T11:20:08.555Z,18.82
2018-12-12T11:21:08.509Z,18.85
2018-12-12T11:22:08.460Z,18.90
2018-12-12T11:23:08.411Z,18.85
2018-12-12T11:24:08.360Z,18.84
2018-12-12T11:25:08.313Z,18.87
2018-12-12T11:26:08.266Z,18.87
2018-12-12T11:27:08.217Z,18.88
2018-12-12T11:28:08.168Z,18.84
2018-12-12T11:29:08.120Z,18.85
2018-12-12T11:30:08.072Z,18.72
2018-12-12T11:31:08.022Z,18.78
2018-12-12T11:32:07.975Z,18.78
2018-12-12T11:33:07.927Z,18.76
2018-12-12T11:34:07.882Z,18.76
2018-12-12T11:35:07.829Z,18.75
2018-12-12T11:36:07.780Z,18.75
2018-12-12T11:37:07.736Z,18.76
2018-12-12T11:38:07.683Z,18.72
2018-12-12T11:39:07.641Z,18.82
2018-12-12T11:40:07.586Z,18.75
2018-12-12T11:41:07.538Z,18.76
2018-12-12T11:42:07.489Z,18.76
2018-12-12T11:43:07.444Z,18.80
2018-12-12T11:44:07.395Z,18.73
2018-12-12T11:45:07.350Z,18.69
2018-12-12T11:46:07.309Z,18.75
2018-12-12T11:47:07.248Z,18.70
2018-12-12T11:48:07.199Z,18.69
2018-12-12T11:49:07.214Z,18.70
2018-12-12T11:50:07.106Z,18.72
2018-12-12T11:51:07.057Z,18.72
2018-12-12T11:52:07.006Z,18.70
2018-12-12T11:53:06.957Z,18.80
2018-12-12T11:54:06.910Z,18.72
2018-12-12T11:55:06.913Z,18.73
2018-12-12T11:56:06.810Z,18.73
2018-12-12T11:57:06.763Z,18.72
2018-12-12T11:58:06.715Z,18.70
2018-12-12T11:59:06.667Z,18.67
2018-12-12T12:00:06.618Z,18.65
2018-12-12T12:01:06.569Z,18.73
2018-12-12T12:02:06.521Z,18.73
2018-12-12T12:03:06.474Z,18.72
2018-12-12T12:04:06.424Z,18.66
2018-12-12T12:05:06.375Z,18.73
2018-12-12T12:06:06.326Z,18.76
2018-12-12T12:07:06.281Z,18.73
2018-12-12T12:08:06.230Z,18.75
2018-12-12T12:09:06.183Z,18.70
2018-12-12T12:10:06.133Z,18.60
2018-12-12T12:11:06.085Z,18.62
2018-12-12T12:12:06.036Z,18.65
2018-12-12T12:13:06.952Z,18.67
2018-12-12T12:14:05.940Z,18.62
2018-12-12T12:15:05.892Z,18.60
2018-12-12T12:16:05.843Z,18.58
2018-12-12T12:17:05.793Z,18.57
2018-12-12T12:18:05.746Z,18.57
2018-12-12T12:19:05.698Z,18.58
2018-12-12T12:20:05.648Z,18.55
2018-12-12T12:21:05.601Z,18.57
2018-12-12T12:22:05.602Z,18.52
2018-12-12T12:23:05.504Z,18.57
2018-12-12T12:24:05.461Z,18.63
2018-12-12T12:25:05.406Z,18.63
2018-12-12T12:26:05.357Z,18.60
2018-12-12T12:27:05.310Z,18.58
2018-12-12T12:28:05.260Z,18.65
2018-12-12T12:29:05.212Z,18.60
2018-12-12T12:30:05.166Z,18.58
2018-12-12T12:31:05.116Z,18.51
2018-12-12T12:32:05.067Z,18.57
2018-12-12T12:33:05.021Z,18.55
2018-12-12T12:34:04.970Z,18.60
2018-12-12T12:35:04.922Z,18.58
2018-12-12T12:36:04.875Z,18.57
2018-12-12T12:37:04.824Z,18.62
2018-12-12T12:38:04.776Z,18.62
2018-12-12T12:39:04.728Z,18.55
2018-12-12T12:40:05.814Z,18.62
2018-12-12T12:41:04.630Z,18.62
2018-12-12T12:42:04.582Z,18.60
2018-12-12T12:43:04.540Z,18.65
2018-12-12T12:44:04.484Z,18.60
2018-12-12T12:45:04.436Z,18.63
2018-12-12T12:46:04.391Z,18.63
2018-12-12T12:47:04.341Z,18.65
2018-12-12T12:48:04.291Z,18.67
2018-12-12T12:49:04.242Z,18.65
2018-12-12T12:50:04.195Z,18.62
2018-12-12T12:51:04.145Z,18.72
2018-12-12T12:52:04.097Z,18.72